createdAt,value
2023-09-23T00:02:19.626Z,22.82
2023-09-23T00:05:22.453Z,22.79
2023-09-23T00:08:24.918Z,22.78
2023-09-23T00:11:27.352Z,22.76
2023-09-23T00:14:32.490Z,22.77
2023-09-23T00:17:37.256Z,22.83
2023-09-23T00:20:41.041Z,22.85
2023-09-23T00:23:43.419Z,22.93
2023-09-23T00:26:49.812Z,23.00
2023-09-23T00:29:53.186Z,23.20
2023-09-23T00:32:55.804Z,23.36
2023-09-23T00:35:58.198Z,23.48
2023-09-23T00:39:04.100Z,23.61
2023-09-23T00:42:06.667Z,23.71
2023-09-23T00:45:16.143Z,23.76
2023-09-23T00:48:24.989Z,23.94
2023-09-23T00:51:28.052Z,24.06
2023-09-23T00:54:32.364Z,23.99
2023-09-23T00:57:35.237Z,24.01
2023-09-23T01:00:45.067Z,23.92
2023-09-23T01:03:47.549Z,23.82
2023-09-23T01:06:50.021Z,23.28
2023-09-23T01:09:52.536Z,22.85
2023-09-23T01:12:55.628Z,22.70
2023-09-23T01:15:58.127Z,22.44
2023-09-23T01:19:01.575Z,22.26
2023-09-23T01:22:04.292Z,22.15
2023-09-23T01:25:07.286Z,22.00
2023-09-23T01:28:12.604Z,21.80
2023-09-23T01:31:15.188Z,21.89
2023-09-23T01:34:17.883Z,21.70
2023-09-23T01:37:21.161Z,21.70
2023-09-23T01:40:25.417Z,21.67
2023-09-23T01:43:28.226Z,21.58
2023-09-23T01:46:31.526Z,21.53
2023-09-23T01:49:34.269Z,21.51
2023-09-23T01:52:37.801Z,21.50
2023-09-23T01:55:40.218Z,21.57
2023-09-23T01:58:43.243Z,21.61
2023-09-23T02:01:46.205Z,21.62
2023-09-23T02:04:48.754Z,21.62
2023-09-23T02:07:51.881Z,21.37
2023-09-23T02:10:54.395Z,21.22
2023-09-23T02:13:57.119Z,20.97
2023-09-23T02:16:59.730Z,20.82
2023-09-23T02:20:02.203Z,20.81
2023-09-23T02:23:07.231Z,20.85
2023-09-23T02:26:09.746Z,20.79
2023-09-23T02:29:13.696Z,20.75
2023-09-23T02:32:16.256Z,20.70
2023-09-23T02:35:18.990Z,20.69
2023-09-23T02:38:22.898Z,20.58
2023-09-23T02:41:25.734Z,20.63
2023-09-23T02:44:31.284Z,20.47
2023-09-23T02:47:33.979Z,20.30
2023-09-23T02:50:38.394Z,20.26
2023-09-23T02:53:40.889Z,20.21
2023-09-23T02:56:43.447Z,20.19
2023-09-23T02:59:48.151Z,20.05
2023-09-23T03:02:56.545Z,20.16
2023-09-23T03:06:04.085Z,20.10
2023-09-23T03:09:09.841Z,20.11
2023-09-23T03:12:13.353Z,20.05
2023-09-23T03:15:16.239Z,20.05
2023-09-23T03:18:29.463Z,20.05
2023-09-23T03:21:32.701Z,20.10
2023-09-23T03:24:36.306Z,20.13
2023-09-23T03:27:40.990Z,20.10
2023-09-23T03:30:49.638Z,20.12
2023-09-23T03:33:57.169Z,20.11
2023-09-23T03:37:10.132Z,20.14
2023-09-23T03:40:16.790Z,20.13
2023-09-23T03:43:19.889Z,20.02
2023-09-23T03:46:23.034Z,20.00
2023-09-23T03:49:25.444Z,19.98
2023-09-23T03:52:28.025Z,19.97
2023-09-23T03:55:30.930Z,19.99
2023-09-23T03:58:33.407Z,19.92
2023-09-23T04:01:37.845Z,19.90
2023-09-23T04:04:40.411Z,19.94
2023-09-23T04:07:52.475Z,19.87
2023-09-23T04:10:54.992Z,19.83
2023-09-23T04:13:57.435Z,19.82
2023-09-23T04:16:59.966Z,19.81
2023-09-23T04:20:05.257Z,19.84
2023-09-23T04:23:07.696Z,19.92
2023-09-23T04:26:10.177Z,19.95
2023-09-23T04:29:13.510Z,19.84
2023-09-23T04:32:16.006Z,19.80
2023-09-23T04:40:30.657Z,19.75
2023-09-23T04:43:33.106Z,19.73
2023-09-23T04:46:35.571Z,19.68
2023-09-23T04:49:38.369Z,19.68
2023-09-23T04:52:42.300Z,19.69
2023-09-23T04:55:47.139Z,19.66
2023-09-23T04:58:49.938Z,19.71
2023-09-23T05:01:52.618Z,19.90
2023-09-23T05:04:55.304Z,19.83
2023-09-23T05:07:57.979Z,19.71
2023-09-23T05:11:01.886Z,19.69
2023-09-23T05:14:06.991Z,19.68
2023-09-23T05:17:11.454Z,19.67
2023-09-23T05:20:17.872Z,19.97
2023-09-23T05:23:24.328Z,19.81
2023-09-23T05:26:27.272Z,19.69
2023-09-23T05:29:29.835Z,19.66
2023-09-23T05:32:32.362Z,19.63
2023-09-23T05:35:36.524Z,19.52
2023-09-23T05:38:38.979Z,19.55
2023-09-23T05:41:41.451Z,19.55
2023-09-23T05:44:44.440Z,19.60
2023-09-23T05:47:47.075Z,19.60
2023-09-23T05:50:50.554Z,19.59
2023-09-23T05:53:53.102Z,19.70
2023-09-23T05:56:55.582Z,19.84
2023-09-23T05:59:58.061Z,19.88
2023-09-23T06:03:00.621Z,19.70
2023-09-23T06:06:03.124Z,19.62
2023-09-23T06:09:07.297Z,19.62
2023-09-23T06:12:09.709Z,19.55
2023-09-23T06:15:12.246Z,19.62
2023-09-23T06:18:15.078Z,19.63
2023-09-23T06:21:17.547Z,19.61
2023-09-23T06:24:20.033Z,19.58
2023-09-23T06:27:22.926Z,19.57
2023-09-23T06:30:25.539Z,19.55
2023-09-23T06:33:27.971Z,19.54
2023-09-23T06:36:30.624Z,19.53
2023-09-23T06:39:33.397Z,19.53
2023-09-23T06:42:37.248Z,19.55
2023-09-23T06:45:40.390Z,19.51
2023-09-23T06:48:43.472Z,19.54
2023-09-23T06:51:45.950Z,19.50
2023-09-23T06:54:48.439Z,19.52
2023-09-23T06:57:51.008Z,19.54
2023-09-23T07:00:53.486Z,19.60
2023-09-23T07:03:56.056Z,19.63
2023-09-23T07:06:58.646Z,19.59
2023-09-23T07:10:01.229Z,19.63
2023-09-23T07:13:07.635Z,19.69
2023-09-23T07:16:17.677Z,19.66
2023-09-23T07:19:20.381Z,19.69
2023-09-23T07:22:22.819Z,19.68
2023-09-23T07:25:25.440Z,19.70
2023-09-23T07:28:28.130Z,19.68
2023-09-23T07:31:30.572Z,19.68
2023-09-23T07:34:33.070Z,19.66
2023-09-23T07:37:35.717Z,19.64
2023-09-23T07:40:40.455Z,19.58
2023-09-23T07:43:43.983Z,19.61
2023-09-23T07:46:46.463Z,19.58
2023-09-23T07:49:49.051Z,19.63
2023-09-23T07:52:51.598Z,19.76
2023-09-23T07:55:54.090Z,19.64
2023-09-23T07:58:56.583Z,19.74
2023-09-23T08:01:59.105Z,19.61
2023-09-23T08:05:01.693Z,19.67
2023-09-23T08:08:04.727Z,19.65
2023-09-23T08:11:09.175Z,19.70
2023-09-23T08:14:11.852Z,19.70
2023-09-23T08:17:16.279Z,19.67
2023-09-23T08:20:19.680Z,19.64
2023-09-23T08:23:22.217Z,19.71
2023-09-23T08:26:25.922Z,19.73
2023-09-23T08:29:31.052Z,19.83
2023-09-23T08:32:33.662Z,19.88
2023-09-23T08:35:37.505Z,19.94
2023-09-23T08:38:41.153Z,19.97
2023-09-23T08:41:49.320Z,20.00
2023-09-23T08:44:51.994Z,20.05
2023-09-23T08:47:54.877Z,20.02
2023-09-23T08:50:57.406Z,20.06
2023-09-23T08:53:59.818Z,20.04
2023-09-23T08:57:02.292Z,20.10
2023-09-23T09:00:11.736Z,20.13
2023-09-23T09:03:14.645Z,20.18
2023-09-23T09:06:20.451Z,20.19
2023-09-23T09:09:24.942Z,20.22
2023-09-23T09:12:27.863Z,20.14
2023-09-23T09:15:31.898Z,20.26
2023-09-23T09:18:34.450Z,20.41
2023-09-23T09:21:37.135Z,20.27
2023-09-23T09:24:39.615Z,20.17
2023-09-23T09:27:43.022Z,20.28
2023-09-23T09:30:45.697Z,20.25
2023-09-23T09:33:51.584Z,20.20
2023-09-23T09:36:58.410Z,20.22
2023-09-23T09:40:01.124Z,20.22
2023-09-23T09:43:03.697Z,20.23
2023-09-23T09:46:09.967Z,20.27
2023-09-23T09:49:12.757Z,20.35
2023-09-23T09:52:16.052Z,20.37
2023-09-23T09:55:20.671Z,20.32
2023-09-23T09:58:23.467Z,20.34
2023-09-23T10:01:26.212Z,20.32
2023-09-23T10:04:35.122Z,20.34
2023-09-23T10:07:58.883Z,20.34
2023-09-23T10:11:05.333Z,20.32
2023-09-23T10:14:17.909Z,20.36
2023-09-23T10:17:22.322Z,20.40
2023-09-23T10:20:33.968Z,20.38
2023-09-23T10:23:37.123Z,20.44
2023-09-23T10:26:40.934Z,20.49
2023-09-23T10:29:48.542Z,20.47
2023-09-23T10:32:51.122Z,20.48
2023-09-23T10:35:54.836Z,20.49
2023-09-23T10:38:58.719Z,20.55
2023-09-23T10:42:01.296Z,20.44
2023-09-23T10:45:04.572Z,20.36
2023-09-23T10:48:09.376Z,20.42
2023-09-23T10:51:13.750Z,20.33
2023-09-23T10:54:16.639Z,20.39
2023-09-23T10:57:19.116Z,20.37
2023-09-23T11:00:22.009Z,20.30
2023-09-23T11:03:24.833Z,20.29
2023-09-23T11:06:27.706Z,20.23
2023-09-23T11:09:30.700Z,20.14
2023-09-23T11:12:34.635Z,20.13
2023-09-23T11:15:41.082Z,20.11
2023-09-23T11:18:44.325Z,20.06
2023-09-23T11:21:47.414Z,20.08
2023-09-23T11:24:50.666Z,20.11
2023-09-23T11:27:53.433Z,20.10
2023-09-23T11:30:56.754Z,20.10
2023-09-23T11:33:59.624Z,20.09
2023-09-23T11:37:02.039Z,20.18
2023-09-23T11:40:05.126Z,20.19
2023-09-23T11:43:07.681Z,20.16
2023-09-23T11:46:10.178Z,20.22
2023-09-23T11:49:12.637Z,20.17
2023-09-23T11:52:15.117Z,20.19
2023-09-23T11:55:17.906Z,20.22
2023-09-23T11:58:21.140Z,20.35
2023-09-23T12:01:23.563Z,20.27
2023-09-23T12:04:26.093Z,20.26
2023-09-23T12:07:28.530Z,20.07
2023-09-23T12:10:31.596Z,20.16
2023-09-23T12:13:34.277Z,20.11
2023-09-23T12:16:36.929Z,20.02
2023-09-23T12:19:39.362Z,19.97
2023-09-23T12:22:42.564Z,19.96
2023-09-23T12:25:44.995Z,19.93
2023-09-23T12:28:47.771Z,19.91
2023-09-23T12:31:50.257Z,19.87
2023-09-23T12:34:52.674Z,19.87
2023-09-23T12:37:55.634Z,19.85
2023-09-23T12:40:58.508Z,19.92
2023-09-23T12:44:01.169Z,19.94
2023-09-23T12:47:04.306Z,19.96
2023-09-23T12:50:08.433Z,19.93
2023-09-23T12:53:11.081Z,19.98
2023-09-23T12:56:14.915Z,19.98
2023-09-23T12:59:18.268Z,20.01
2023-09-23T13:02:20.788Z,20.00
2023-09-23T13:05:23.444Z,20.00
2023-09-23T13:08:25.969Z,19.93
2023-09-23T13:11:28.809Z,19.93
2023-09-23T13:14:31.378Z,20.00
2023-09-23T13:17:33.986Z,19.95
2023-09-23T13:20:37.375Z,19.90
2023-09-23T13:23:40.300Z,19.89
2023-09-23T13:26:44.833Z,19.87
2023-09-23T13:29:47.318Z,19.81
2023-09-23T13:32:49.755Z,19.73
2023-09-23T13:35:52.893Z,19.81
2023-09-23T13:38:55.361Z,19.80
2023-09-23T13:41:58.043Z,19.77
2023-09-23T13:45:00.753Z,19.76
2023-09-23T13:48:03.825Z,19.68
2023-09-23T13:51:08.229Z,19.64
2023-09-23T13:54:10.927Z,19.52
2023-09-23T13:57:13.301Z,19.58
2023-09-23T14:00:15.799Z,19.55
2023-09-23T14:03:19.636Z,19.56
2023-09-23T14:06:22.272Z,19.58
2023-09-23T14:09:24.953Z,19.55
2023-09-23T14:12:27.963Z,19.56
2023-09-23T14:15:31.756Z,19.56
2023-09-23T14:18:34.775Z,19.52
2023-09-23T14:21:37.220Z,19.50
2023-09-23T14:24:39.598Z,19.51
2023-09-23T14:27:42.383Z,19.46
2023-09-23T14:30:45.079Z,19.44
2023-09-23T14:33:47.539Z,19.44
2023-09-23T14:36:50.119Z,19.44
2023-09-23T14:39:52.545Z,19.39
2023-09-23T14:42:56.428Z,19.40
2023-09-23T14:45:59.504Z,19.37
2023-09-23T14:49:02.090Z,19.34
2023-09-23T14:52:04.657Z,19.33
2023-09-23T14:55:08.061Z,19.34
2023-09-23T14:58:11.456Z,19.32
2023-09-23T15:01:14.223Z,19.36
2023-09-23T15:04:18.014Z,19.27
2023-09-23T15:07:21.961Z,19.28
2023-09-23T15:10:24.461Z,19.30
2023-09-23T15:13:26.818Z,19.24
2023-09-23T15:16:30.678Z,19.21
2023-09-23T15:19:33.176Z,19.21
2023-09-23T15:22:35.649Z,19.22
2023-09-23T15:25:39.389Z,19.20
2023-09-23T15:28:41.946Z,19.18
2023-09-23T15:31:44.653Z,19.15
2023-09-23T15:34:47.093Z,19.15
2023-09-23T15:37:49.499Z,19.14
2023-09-23T15:40:52.985Z,19.13
2023-09-23T15:43:55.585Z,19.16
2023-09-23T15:46:58.969Z,19.17
2023-09-23T15:50:01.411Z,19.15
2023-09-23T15:53:05.828Z,19.08
2023-09-23T15:56:08.529Z,19.11
2023-09-23T15:59:11.824Z,19.09
2023-09-23T16:02:14.485Z,19.10
2023-09-23T16:05:17.099Z,19.08
2023-09-23T16:08:19.602Z,19.09
2023-09-23T16:11:22.117Z,19.09
2023-09-23T16:14:26.488Z,19.09
2023-09-23T16:17:29.152Z,19.09
2023-09-23T16:20:31.733Z,19.11
2023-09-23T16:23:34.524Z,19.09
2023-09-23T16:26:37.055Z,19.04
2023-09-23T16:29:41.595Z,19.06
2023-09-23T16:32:44.155Z,19.03
2023-09-23T16:35:46.678Z,18.84
2023-09-23T16:38:49.672Z,18.95
2023-09-23T16:41:52.506Z,18.92
2023-09-23T16:44:54.971Z,18.94
2023-09-23T16:47:57.855Z,18.87
2023-09-23T16:51:00.342Z,18.93
2023-09-23T16:54:03.008Z,18.89
2023-09-23T16:57:05.595Z,18.91
2023-09-23T17:00:09.424Z,18.92
2023-09-23T17:03:12.408Z,18.97
2023-09-23T17:06:15.073Z,18.99
2023-09-23T17:09:17.553Z,18.92
2023-09-23T17:12:19.972Z,18.88
2023-09-23T17:15:22.765Z,18.99
2023-09-23T17:18:25.972Z,19.00
2023-09-23T17:21:28.396Z,18.93
2023-09-23T17:24:31.060Z,18.93
2023-09-23T17:27:34.055Z,18.86
2023-09-23T17:30:37.859Z,18.86
2023-09-23T17:33:40.727Z,18.75
2023-09-23T17:36:43.225Z,18.75
2023-09-23T17:39:45.629Z,18.65
2023-09-23T17:42:48.410Z,18.65
2023-09-23T17:45:50.815Z,18.50
2023-09-23T17:48:54.364Z,18.56
2023-09-23T17:51:57.047Z,18.55
2023-09-23T17:55:00.357Z,18.54
2023-09-23T17:58:03.231Z,18.51
2023-09-23T18:01:06.015Z,18.54
2023-09-23T18:04:08.619Z,18.61
2023-09-23T18:07:11.110Z,18.64
2023-09-23T18:10:13.554Z,18.56
2023-09-23T18:13:16.949Z,18.48
2023-09-23T18:16:20.586Z,18.44
2023-09-23T18:19:23.264Z,18.46
2023-09-23T18:22:25.821Z,18.52
2023-09-23T18:25:28.249Z,18.35
2023-09-23T18:28:30.897Z,18.40
2023-09-23T18:31:33.961Z,18.30
2023-09-23T18:34:36.455Z,18.37
2023-09-23T18:37:38.918Z,18.37
2023-09-23T18:40:41.321Z,18.46
2023-09-23T18:43:44.674Z,18.43
2023-09-23T18:46:48.047Z,18.37
2023-09-23T18:49:51.553Z,18.27
2023-09-23T18:52:53.973Z,18.19
2023-09-23T18:56:00.755Z,18.16
2023-09-23T18:59:03.561Z,18.24
2023-09-23T19:02:06.719Z,18.22
2023-09-23T19:05:09.929Z,18.22
2023-09-23T19:08:12.461Z,18.21
2023-09-23T19:11:15.066Z,18.21
2023-09-23T19:14:17.902Z,18.15
2023-09-23T19:17:23.128Z,18.06
2023-09-23T19:20:26.166Z,18.01
2023-09-23T19:23:28.880Z,18.03
2023-09-23T19:26:40.717Z,17.97
2023-09-23T19:29:52.704Z,17.96
2023-09-23T19:32:55.299Z,17.91
2023-09-23T19:35:57.789Z,17.83
2023-09-23T19:39:00.657Z,17.84
2023-09-23T19:42:04.062Z,17.91
2023-09-23T19:45:06.956Z,17.82
2023-09-23T19:48:10.874Z,17.77
2023-09-23T19:51:15.585Z,17.75
2023-09-23T19:54:18.062Z,17.86
2023-09-23T19:57:21.833Z,17.82
2023-09-23T20:00:24.685Z,17.82
2023-09-23T20:03:27.310Z,17.83
2023-09-23T20:06:30.508Z,17.77
2023-09-23T20:09:33.418Z,17.70
2023-09-23T20:12:36.616Z,17.69
2023-09-23T20:15:39.195Z,17.67
2023-09-23T20:18:41.652Z,17.60
2023-09-23T20:21:44.145Z,17.59
2023-09-23T20:24:46.518Z,17.61
2023-09-23T20:27:49.009Z,17.55
2023-09-23T20:30:57.397Z,17.48
2023-09-23T20:34:00.636Z,17.36
2023-09-23T20:37:04.099Z,17.35
2023-09-23T20:40:08.214Z,17.34
2023-09-23T20:43:11.133Z,17.37
2023-09-23T20:46:13.649Z,17.28
2023-09-23T20:49:16.293Z,17.29
2023-09-23T20:52:19.452Z,17.30
2023-09-23T20:55:21.858Z,17.26
2023-09-23T20:58:25.374Z,17.27
2023-09-23T21:01:27.968Z,17.21
2023-09-23T21:04:30.522Z,17.14
2023-09-23T21:07:33.097Z,17.13
2023-09-23T21:10:36.200Z,17.09
2023-09-23T21:13:38.688Z,17.12
2023-09-23T21:16:41.148Z,17.07
2023-09-23T21:19:44.556Z,17.10
2023-09-23T21:22:47.017Z,16.99
2023-09-23T21:25:54.749Z,16.93
2023-09-23T21:28:57.134Z,17.13
2023-09-23T21:31:59.593Z,17.10
2023-09-23T21:35:04.212Z,17.02
2023-09-23T21:38:07.805Z,17.07
2023-09-23T21:41:10.284Z,17.10
2023-09-23T21:44:12.969Z,17.10
2023-09-23T21:47:17.978Z,17.01
2023-09-23T21:50:20.500Z,17.00
2023-09-23T21:53:23.001Z,17.07
2023-09-23T21:56:37.432Z,17.01
2023-09-23T21:59:40.331Z,16.93
2023-09-23T22:02:42.927Z,17.01
2023-09-23T22:05:45.429Z,16.88
2023-09-23T22:08:49.974Z,16.89
2023-09-23T22:11:52.494Z,16.90
2023-09-23T22:14:55.180Z,16.91
2023-09-23T22:17:58.748Z,16.84
2023-09-23T22:21:01.461Z,16.84
2023-09-23T22:24:08.776Z,16.94
2023-09-23T22:27:11.311Z,16.85
2023-09-23T22:30:18.885Z,16.86
2023-09-23T22:33:21.344Z,16.90
2023-09-23T22:36:24.172Z,16.87
2023-09-23T22:39:27.233Z,16.77
2023-09-23T22:42:29.612Z,16.79
2023-09-23T22:45:39.458Z,16.76
2023-09-23T22:48:42.529Z,16.87
2023-09-23T22:51:45.059Z,16.84
2023-09-23T22:54:47.437Z,16.84
2023-09-23T22:57:49.910Z,16.83
2023-09-23T23:00:52.471Z,16.73
2023-09-23T23:03:55.484Z,16.62
2023-09-23T23:06:57.938Z,16.63
2023-09-23T23:10:00.448Z,16.62
2023-09-23T23:13:03.200Z,16.56
2023-09-23T23:16:10.681Z,16.57
2023-09-23T23:19:14.167Z,16.64
2023-09-23T23:22:16.597Z,16.67
2023-09-23T23:25:19.175Z,16.63
2023-09-23T23:28:22.640Z,16.56
2023-09-23T23:31:25.120Z,16.55
2023-09-23T23:34:27.637Z,16.54
2023-09-23T23:37:30.217Z,16.52
2023-09-23T23:40:34.128Z,16.44
2023-09-23T23:43:36.602Z,16.63
2023-09-23T23:46:38.976Z,16.54
2023-09-23T23:49:41.362Z,16.55
2023-09-23T23:52:43.746Z,16.55
2023-09-23T23:55:47.842Z,16.58
2023-09-23T23:58:51.753Z,16.61
